Latest Weather Observations for Mandurah

IDW60901

Issued at 5:11 am WST Tuesday 7 December 2021 (issued every 10 minutes, with the page automatically refreshed every 10 minutes)

About weather observations | Map of Perth area stations | Latest observations for Perth area | Other Formats
Station Details ID: 009977 Name: MANDURAH Lat: -32.52 Lon: 115.71 Height: 3.0 m
Data from the previous 72 hours. | See also: Recent months at Mandurah
Date/Time
WST
Temp
°C
App
Temp
°C
Dew
Point
°C
Rel
Hum
%
Delta-T
°C
Wind Press
QNH
hPa
Press
MSL
hPa
Rain since
9am
mm
Dir  Spd
km/h
Gust
km/h
Spd
kts
Gust
kts
07/05:00am 16.2 12.9 9.4 64 3.5 ESE 17 26 9 14 1014.9 1014.9 0.0
07/04:30am 16.2 12.9 9.6 65 3.4 ESE 17 24 9 13 1014.6 1014.6 0.0
07/04:00am 16.0 13.4 9.2 64 3.5 ESE 13 26 7 14 1014.8 1014.8 0.0
07/03:30am 15.8 12.4 9.0 64 3.5 ESE 17 22 9 12 1014.7 1014.7 0.0
07/03:00am 15.8 12.7 9.0 64 3.5 ESE 15 26 8 14 1014.8 1014.8 0.0
07/02:30am 15.7 11.7 8.4 62 3.7 ESE 19 28 10 15 1014.4 1014.4 0.0
07/02:00am 15.8 11.8 8.3 61 3.8 ESE 19 30 10 16 1014.6 1014.6 0.0
07/01:30am 16.1 12.4 8.1 59 4.0 SE 17 33 9 18 1014.5 1014.5 0.0
07/01:00am 16.3 12.1 8.3 59 4.1 ESE 20 30 11 16 1014.7 1014.7 0.0
07/12:30am 16.7 11.9 8.7 59 4.1 ESE 24 35 13 19 1014.7 1014.7 0.0
07/12:00am 16.8 12.2 8.0 56 4.4 ESE 22 35 12 19 1014.7 1014.7 0.0
 
Date/Time
WST
Temp
°C
App
Temp
°C
Dew
Point
°C
Rel
Hum
%
Delta-T
°C
Wind Press
QNH
hPa
Press
MSL
hPa
Rain since
9am
mm
Dir  Spd
km/h
Gust
km/h
Spd
kts
Gust
kts
06/11:30pm 17.4 12.5 8.3 55 4.7 ESE 24 41 13 22 1014.8 1014.8 0.0
06/11:00pm 18.2 13.6 8.2 52 5.1 SE 22 35 12 19 1014.8 1014.8 0.0
06/10:30pm 19.0 13.7 8.4 50 5.5 ESE 26 43 14 23 1014.8 1014.8 0.0
06/10:00pm 20.0 14.8 8.7 48 5.9 ESE 26 41 14 22 1014.7 1014.7 0.0
06/09:38pm 20.6 14.1 8.3 45 6.4 ESE 32 50 17 27 1014.5 1014.5 0.0
06/09:30pm 21.1 14.5 8.4 44 6.7 ESE 33 50 18 27 1014.4 1014.4 0.0
06/09:00pm 22.9 18.3 9.7 43 7.2 SE 24 37 13 20 1014.0 1014.0 0.0
06/08:30pm 23.9 19.4 9.9 41 7.7 SE 24 39 13 21 1013.7 1013.7 0.0
06/08:00pm 24.7 21.0 10.2 40 8.0 SE 20 33 11 18 1013.4 1013.4 0.0
06/07:30pm 25.6 21.5 10.2 38 8.5 ESE 22 35 12 19 1013.2 1013.2 0.0
06/07:00pm 26.8 22.4 10.5 36 9.1 ESE 24 35 13 19 1012.9 1012.9 0.0
06/06:30pm 28.2 24.0 9.9 32 10.2 SE 22 35 12 19 1012.7 1012.7 0.0
06/06:00pm 29.1 24.5 9.8 30 10.8 SE 24 33 13 18 1012.3 1012.3 0.0
06/05:30pm 29.6 25.4 9.7 29 11.2 ESE 22 33 12 18 1012.2 1012.2 0.0
06/05:00pm 30.3 26.5 9.8 28 11.6 ESE 20 33 11 18 1012.1 1012.1 0.0
06/04:30pm 31.2 27.6 10.0 27 12.0 SE 19 30 10 16 1012.1 1012.1 0.0
06/04:00pm 31.6 27.8 9.2 25 12.6 SE 19 33 10 18 1012.4 1012.4 0.0
06/03:30pm 31.3 27.2 7.7 23 12.9 SE 19 28 10 15 1012.6 1012.6 0.0
06/03:00pm 31.3 27.3 8.3 24 12.7 SE 19 32 10 17 1012.8 1012.8 0.0
06/02:30pm 30.8 27.5 7.9 24 12.6 SE 15 22 8 12 1013.1 1013.1 0.0
06/02:00pm 30.8 27.6 8.5 25 12.3 SSE 15 22 8 12 1013.3 1013.3 0.0
06/01:30pm 30.1 27.3 8.5 26 11.9 SSE 13 24 7 13 1013.6 1013.6 0.0
06/01:00pm 29.5 27.2 9.1 28 11.3 SE 11 19 6 10 1014.1 1014.1 0.0
06/12:30pm 28.7 25.1 8.4 28 11.1 SSE 17 28 9 15 1014.6 1014.6 0.0
06/12:00pm 27.9 25.7 9.2 31 10.3 ESE 11 20 6 11 1015.0 1015.0 0.0
06/11:30am 27.3 24.5 8.7 31 10.1 SE 13 24 7 13 1015.4 1015.4 0.0
06/11:00am 26.0 22.8 8.5 33 9.4 SE 15 24 8 13 1015.7 1015.7 0.0
06/10:30am 25.5 22.3 8.5 34 9.2 ESE 15 26 8 14 1016.1 1016.1 0.0
06/10:00am 24.2 20.3 8.6 37 8.3 SE 19 30 10 16 1016.5 1016.5 0.0
06/09:30am 23.0 19.2 9.0 41 7.5 SE 19 32 10 17 1016.7 1016.7 0.0
06/09:00am 22.4 19.0 9.2 43 7.1 ESE 17 24 9 13 1017.0 1017.0 0.0
06/08:30am 21.8 18.1 9.3 45 6.7 SE 19 32 10 17 1017.2 1017.2 0.0
06/08:00am 20.5 16.7 9.7 50 5.8 ESE 20 32 11 17 1017.2 1017.2 0.0
06/07:30am 19.3 15.0 9.5 53 5.2 SE 22 33 12 18 1017.3 1017.3 0.0
06/07:00am 18.6 14.4 9.7 56 4.7 ESE 22 33 12 18 1017.3 1017.3 0.0
06/06:30am 17.9 14.1 9.8 59 4.3 ESE 20 35 11 19 1017.0 1017.0 0.0
06/06:00am 16.9 14.1 10.1 64 3.6 SE 15 20 8 11 1017.0 1017.0 0.0
06/05:30am 16.5 14.6 10.4 67 3.2 SE 11 15 6 8 1017.0 1017.0 0.0
06/05:00am 16.4 14.4 10.3 67 3.2 SE 11 17 6 9 1016.8 1016.8 0.0
06/04:30am 16.4 14.8 10.3 67 3.2 SE 9 17 5 9 1016.5 1016.5 0.0
06/04:00am 16.6 14.6 10.2 66 3.4 SE 11 17 6 9 1016.2 1016.2 0.0
06/03:30am 16.9 15.8 10.5 66 3.4 SE 7 11 4 6 1016.0 1016.0 0.0
06/03:00am 17.4 15.2 10.8 65 3.5 SE 13 17 7 9 1015.6 1015.6 0.0
06/02:30am 17.9 15.7 10.8 63 3.8 SE 13 19 7 10 1015.4 1015.4 0.0
06/02:00am 18.5 15.9 10.8 61 4.2 SE 15 22 8 12 1015.3 1015.3 0.0
06/01:30am 19.0 15.5 10.3 57 4.7 SE 19 26 10 14 1015.2 1015.2 0.0
06/01:00am 19.8 16.6 10.0 53 5.2 SSE 17 24 9 13 1015.3 1015.3 0.0
06/12:30am 20.4 16.7 9.3 49 5.9 SSE 19 28 10 15 1015.3 1015.3 0.0
06/12:00am 21.1 17.7 9.0 46 6.4 SE 17 26 9 14 1015.3 1015.3 0.0
 
Date/Time
WST
Temp
°C
App
Temp
°C
Dew
Point
°C
Rel
Hum
%
Delta-T
°C
Wind Press
QNH
hPa
Press
MSL
hPa
Rain since
9am
mm
Dir  Spd
km/h
Gust
km/h
Spd
kts
Gust
kts
05/11:30pm 22.0 18.0 8.9 43 7.0 SSE 20 32 11 17 1015.0 1015.0 0.0
05/11:00pm 22.6 18.7 10.7 47 6.6 SSE 22 30 12 16 1014.9 1014.9 0.0
05/10:30pm 22.3 20.3 13.9 59 4.9 SSE 17 24 9 13 1014.8 1014.8 0.0
05/10:00pm 22.7 20.1 13.2 55 5.5 S 19 28 10 15 1014.6 1014.6 0.0
05/09:30pm 23.3 19.7 13.2 53 5.8 S 24 33 13 18 1014.4 1014.4 0.0
05/09:00pm 23.6 20.8 14.3 56 5.5 S 22 30 12 16 1014.1 1014.1 0.0
05/08:30pm 23.8 21.2 14.8 57 5.4 S 22 37 12 20 1013.8 1013.8 0.0
05/08:00pm 23.8 21.3 14.2 55 5.7 S 20 32 11 17 1013.6 1013.6 0.0
05/07:30pm 24.0 20.6 13.8 53 6.0 S 24 35 13 19 1013.3 1013.3 0.0
05/07:00pm 24.1 21.2 13.9 53 6.0 S 22 35 12 19 1013.3 1013.3 0.0
05/06:30pm 24.7 20.9 13.6 50 6.5 SSW 26 43 14 23 1013.3 1013.3 0.0
05/06:00pm 24.8 21.4 13.7 50 6.5 SSW 24 37 13 20 1013.0 1013.0 0.0
05/05:30pm 25.6 21.9 13.8 48 7.0 SSW 26 41 14 22 1012.8 1012.8 0.0
05/05:00pm 26.1 21.8 13.2 44 7.5 SSW 28 43 15 23 1012.8 1012.8 0.0
05/04:30pm 26.5 23.0 12.2 41 8.2 SSW 22 35 12 19 1012.9 1012.9 0.0
05/04:00pm 27.4 23.4 11.8 38 9.0 SSW 24 41 13 22 1013.0 1013.0 0.0
05/03:30pm 28.7 24.5 8.4 28 11.1 SSW 20 37 11 20 1013.1 1013.1 0.0
05/03:00pm 28.2 24.3 10.9 34 9.8 SSW 22 37 12 20 1013.4 1013.4 0.0
05/02:30pm 28.6 24.9 11.6 34 9.8 SW 22 35 12 19 1013.5 1013.5 0.0
05/02:00pm 28.4 23.9 10.1 32 10.3 SSW 24 39 13 21 1013.7 1013.7 0.0
05/01:30pm 28.4 23.7 10.6 33 10.1 SSW 26 37 14 20 1013.8 1013.8 0.0
05/01:00pm 28.4 25.3 12.3 37 9.4 SSW 20 32 11 17 1013.9 1013.9 0.0
05/12:30pm 28.0 25.7 13.1 39 8.8 SW 17 28 9 15 1014.0 1014.0 0.0
05/12:00pm 29.6 28.0 13.8 38 9.5 SW 15 24 8 13 1014.3 1014.3 0.0
05/11:30am 28.9 27.2 13.6 39 9.1 SSW 15 20 8 11 1014.4 1014.4 0.0
05/11:00am 29.2 28.1 13.0 37 9.6 SSW 11 20 6 11 1014.6 1014.6 0.0
05/10:30am 28.3 26.8 11.8 36 9.5 SSW 11 17 6 9 1014.8 1014.8 0.0
05/10:00am 26.8 24.9 11.7 39 8.6 S 13 19 7 10 1015.0 1015.0 0.0
05/09:30am 25.3 23.3 11.5 42 7.8 S 13 19 7 10 1015.4 1015.4 0.0
05/09:00am 24.1 22.1 11.4 45 7.1 SSW 13 17 7 9 1015.7 1015.7 0.0
05/08:30am 23.2 21.5 11.3 47 6.6 S 11 15 6 8 1015.9 1015.9 0.0
05/08:00am 23.6 22.8 11.0 45 7.0 SSE 6 9 3 5 1015.8 1015.8 0.0
05/07:30am 22.2 21.2 11.0 49 6.2 SE 7 13 4 7 1015.6 1015.6 0.0
05/07:00am 20.9 19.9 11.0 53 5.4 SE 7 13 4 7 1015.7 1015.7 0.0
05/06:30am 19.9 18.8 10.6 55 5.0 SE 7 11 4 6 1015.8 1015.8 0.0
05/06:00am 19.2 18.0 10.2 56 4.8 SE 7 11 4 6 1015.8 1015.8 0.0
05/05:30am 19.1 17.6 10.6 58 4.6 SSE 9 11 5 6 1015.7 1015.7 0.0
05/05:00am 19.3 18.0 11.1 59 4.5 SSE 9 13 5 7 1015.6 1015.6 0.0
05/04:30am 19.6 17.9 10.0 54 5.1 SSE 9 13 5 7 1015.4 1015.4 0.0
05/04:00am 20.1 18.6 10.5 54 5.2 SSE 9 13 5 7 1015.4 1015.4 0.0
05/03:30am 20.3 19.4 11.5 57 4.9 SSE 7 9 4 5 1015.5 1015.5 0.0
05/03:00am 20.9 19.8 10.7 52 5.6 SSE 7 13 4 7 1015.5 1015.5 0.0
05/02:30am 21.5 19.6 9.1 45 6.6 SSE 9 13 5 7 1015.4 1015.4 0.0
05/02:00am 21.7 19.6 9.6 46 6.5 SE 11 17 6 9 1015.1 1015.1 0.0
05/01:30am 21.8 19.9 10.6 49 6.1 SE 11 19 6 10 1015.3 1015.3 0.0
05/01:00am 21.9 20.4 10.7 49 6.1 SE 9 13 5 7 1015.6 1015.6 0.0
05/12:30am 22.1 20.7 10.9 49 6.2 SE 9 13 5 7 1015.8 1015.8 0.0
05/12:00am 22.5 20.8 11.3 49 6.2 SE 11 15 6 8 1016.1 1016.1 0.0
 
Date/Time
WST
Temp
°C
App
Temp
°C
Dew
Point
°C
Rel
Hum
%
Delta-T
°C
Wind Press
QNH
hPa
Press
MSL
hPa
Rain since
9am
mm
Dir  Spd
km/h
Gust
km/h
Spd
kts
Gust
kts
04/11:30pm 22.5 21.3 12.7 54 5.6 SSE 11 17 6 9 1016.2 1016.2 0.0
04/11:00pm 22.2 21.5 14.3 61 4.6 SSE 11 17 6 9 1016.3 1016.3 0.0
04/10:30pm 22.5 21.6 15.8 66 4.0 SSE 15 24 8 13 1016.3 1016.3 0.0
04/10:00pm 22.8 22.9 16.4 67 3.9 SSE 11 15 6 8 1016.1 1016.1 0.0
04/09:30pm 23.2 22.4 16.0 64 4.4 S 15 20 8 11 1016.1 1016.1 0.0
04/09:00pm 23.4 22.4 15.7 62 4.6 S 15 20 8 11 1015.9 1015.9 0.0
04/08:30pm 23.7 23.1 15.7 61 4.8 S 13 24 7 13 1015.8 1015.8 0.0
04/08:00pm 24.1 22.9 15.1 57 5.4 S 15 24 8 13 1015.7 1015.7 0.0
04/07:30pm 24.4 23.0 14.5 54 5.9 S 15 24 8 13 1015.5 1015.5 0.0
04/07:00pm 24.6 22.7 14.1 52 6.2 S 17 24 9 13 1015.5 1015.5 0.0
04/06:30pm 25.2 23.6 14.0 49 6.6 S 15 26 8 14 1015.4 1015.4 0.0
04/06:00pm 25.5 23.0 13.4 47 7.1 SSW 19 30 10 16 1015.2 1015.2 0.0
04/05:30pm 25.9 23.3 13.7 47 7.2 SSW 20 32 11 17 1015.0 1015.0 0.0
04/05:00pm 26.6 24.2 13.7 45 7.6 SSW 19 30 10 16 1015.0 1015.0 0.0
04/04:30pm 26.7 24.4 14.1 46 7.5 SSW 19 32 10 17 1015.1 1015.1 0.0
04/04:00pm 27.8 24.9 14.1 43 8.2 SSW 22 35 12 19 1015.3 1015.3 0.0
04/03:30pm 28.4 25.9 13.5 40 8.8 SSW 19 30 10 16 1015.6 1015.6 0.0
04/03:00pm 29.2 26.2 12.6 36 9.7 SSW 20 28 11 15 1015.7 1015.7 0.0
04/02:30pm 29.0 26.4 13.2 37 9.4 SSW 19 26 10 14 1016.1 1016.1 0.0
04/02:00pm 28.8 26.8 15.0 43 8.4 WSW 19 28 10 15 1016.4 1016.4 0.0
04/01:30pm 29.6 28.1 15.3 41 8.8 SW 17 24 9 13 1016.7 1016.7 0.0
04/01:00pm 30.8 29.0 10.7 29 11.5 S 11 19 6 10 1017.0 1017.0 0.0
04/12:30pm 29.6 29.4 14.6 40 9.1 SW 9 20 5 11 1017.5 1017.5 0.0
04/12:00pm 30.2 29.6 11.7 32 10.7 SE 6 9 3 5 1017.9 1017.9 0.0
04/11:30am 28.6 27.8 11.6 34 9.8 S 7 13 4 7 1018.3 1018.3 0.0
04/11:00am 27.4 26.7 11.4 37 9.1 SSE 6 13 3 7 1018.8 1018.8 0.0
04/10:30am 27.1 26.3 11.2 37 9.0 SSE 6 9 3 5 1019.3 1019.3 0.0
04/10:00am 25.1 23.7 10.9 41 7.9 S 9 17 5 9 1019.5 1019.5 0.0
04/09:30am 25.3 23.0 10.4 39 8.3 ESE 13 24 7 13 1019.8 1019.8 0.0
04/09:00am 23.6 21.3 10.6 44 7.2 ESE 13 20 7 11 1019.9 1019.9 0.0
04/08:30am 22.7 20.8 10.5 46 6.7 E 11 19 6 10 1020.1 1020.1 0.0
04/08:00am 21.1 19.2 10.6 51 5.7 ESE 11 20 6 11 1020.2 1020.2 0.0
04/07:30am 19.6 16.9 10.3 55 5.0 E 15 24 8 13 1020.5 1020.5 0.0
04/07:00am 18.5 16.9 10.3 59 4.4 E 9 20 5 11 1020.7 1020.7 0.0
04/06:30am 17.7 16.4 10.1 61 4.0 SE 7 13 4 7 1020.8 1020.8 0.0
04/06:00am 16.8 15.6 9.7 63 3.7 SE 6 9 3 5 1021.0 1021.0 0.0
04/05:30am 16.3 14.9 9.7 65 3.4 SE 7 9 4 5 1020.8 1020.8 0.0

Latest Capital City Observations: Canberra | Sydney | Melbourne | Brisbane | Adelaide | Perth | Hobart | Darwin

Other formats

Comma delimited format used in spreadsheet applications
http://www.bom.gov.au/fwo/IDW60901/IDW60901.94605.axf

JavaScript Object Notation format (JSON) in row-major order
http://www.bom.gov.au/fwo/IDW60901/IDW60901.94605.json

Data quality

Most of these data are generated automatically and are frequently updated. Quality checks on data are not normally performed. It is possible for incorrect values to appear. Refer to information at About Latest Weather Observations and please check the disclaimer before using these data.